Time;durP1;ratioP1;P1;durP2;ratioP2;P2;SDS_P1;SDS_P2;PMS_P1;PMS_P2;Temp;Humidity;BMP_temperature;BMP_pressure;BME280_temperature;BME280_humidity;BME280_pressure;Samples;Min_cycle;Max_cycle;Signal;HPM_P1;HPM_P2
2022/07/11 04:56:07;;;;;;;3.63;2.45;;;12.30;99.90;;;;;;6178668;23;20358;-80
2022/07/11 04:58:53;;;;;;;2.67;2.15;;;12.40;99.90;;;;;;6223178;23;20013;-81
2022/07/11 05:01:24;;;;;;;3.80;3.00;;;12.50;99.90;;;;;;6188286;23;20336;-81
2022/07/11 05:04:07;;;;;;;5.00;2.17;;;12.50;99.90;;;;;;6126501;23;20032;-81
2022/07/11 05:06:35;;;;;;;12.23;5.28;;;12.60;99.90;;;;;;6203747;23;20347;-82
2022/07/11 05:09:07;;;;;;;8.98;4.00;;;12.70;99.90;;;;;;6196586;23;20437;-83
2022/07/11 05:11:36;;;;;;;4.15;2.90;;;12.80;99.90;;;;;;6187238;23;20448;-83
2022/07/11 05:14:07;;;;;;;15.85;2.08;;;12.90;99.90;;;;;;6162923;23;20020;-83
2022/07/11 05:16:35;;;;;;;2.45;1.85;;;13.10;99.90;;;;;;6224804;23;20026;-82
2022/07/11 05:19:04;;;;;;;6.20;2.83;;;13.20;99.90;;;;;;6187581;23;20455;-83
2022/07/11 05:21:31;;;;;;;5.65;2.03;;;13.30;99.90;;;;;;6165537;23;20024;-82
2022/07/11 05:24:03;;;;;;;10.52;1.73;;;13.40;99.90;;;;;;6191007;23;20471;-83
2022/07/11 05:26:33;;;;;;;4.80;2.42;;;13.40;99.90;;;;;;6188852;23;20016;-82
2022/07/11 05:29:02;;;;;;;3.78;2.85;;;13.50;99.90;;;;;;6199819;23;20013;-82
2022/07/11 05:31:32;;;;;;;4.80;1.65;;;13.50;99.90;;;;;;6139751;23;20035;-82
2022/07/11 05:34:47;;;;;;;1.42;1.10;;;13.60;99.90;;;;;;6171830;23;20033;-84
2022/07/11 05:37:33;;;;;;;4.82;1.40;;;13.70;99.90;;;;;;6182741;23;20305;-82
2022/07/11 05:55:53;;;;;;;1.35;1.33;;;14.00;99.90;;;;;;6076521;23;20038;-81
2022/07/11 05:58:45;;;;;;;1.20;1.10;;;14.10;99.90;;;;;;6059047;23;20351;-83
2022/07/11 06:01:22;;;;;;;1.65;1.52;;;14.20;99.90;;;;;;6026394;23;20478;-83
2022/07/11 06:03:54;;;;;;;1.20;1.02;;;14.30;99.90;;;;;;6053751;23;20031;-83
2022/07/11 06:06:45;;;;;;;1.77;1.25;;;14.40;99.90;;;;;;6044776;23;20026;-84
2022/07/11 06:09:19;;;;;;;1.20;1.20;;;14.40;99.90;;;;;;6070350;23;20050;-83
2022/07/11 06:22:35;;;;;;;0.85;0.85;;;14.80;99.90;;;;;;5964272;23;20027;-81
2022/07/11 06:25:23;;;;;;;9.30;2.13;;;14.90;99.90;;;;;;5992756;23;20542;-83
2022/07/11 06:28:00;;;;;;;1.27;1.17;;;15.00;99.90;;;;;;6059961;23;20030;-81
2022/07/11 06:30:28;;;;;;;1.33;1.23;;;15.00;99.90;;;;;;6122469;23;20026;-81
2022/07/11 06:32:57;;;;;;;6.75;2.13;;;15.00;99.90;;;;;;6166255;23;20016;-82
2022/07/11 06:35:25;;;;;;;1.15;0.80;;;15.00;99.90;;;;;;6218597;23;20028;-82
2022/07/11 06:37:59;;;;;;;1.20;1.15;;;15.00;99.90;;;;;;6185561;23;20016;-82
2022/07/11 06:40:33;;;;;;;1.80;1.23;;;15.00;99.90;;;;;;6213100;23;20444;-82
2022/07/11 06:43:11;;;;;;;12.68;1.50;;;15.20;99.90;;;;;;6164402;23;20028;-82
2022/07/11 06:45:41;;;;;;;10.68;2.25;;;15.30;99.90;;;;;;6187952;23;20024;-82
2022/07/11 06:48:16;;;;;;;1.15;1.00;;;15.30;99.90;;;;;;6186823;23;20028;-82
2022/07/11 06:50:53;;;;;;;1.10;0.93;;;15.30;99.90;;;;;;6139789;23;20028;-83
2022/07/11 06:53:26;;;;;;;1.23;1.08;;;15.40;99.90;;;;;;6163406;23;20657;-82
2022/07/11 06:56:01;;;;;;;2.35;1.05;;;15.50;99.90;;;;;;6187318;23;20020;-83
2022/07/11 06:58:32;;;;;;;2.97;1.38;;;15.60;99.90;;;;;;6187316;23;20027;-83
2022/07/11 07:01:08;;;;;;;3.70;2.00;;;15.60;99.90;;;;;;6188032;23;20039;-84
2022/07/11 07:03:46;;;;;;;;;;;15.60;99.90;;;;;;6190616;23;20032;-87
2022/07/11 07:06:30;;;;;;;6.68;2.58;;;15.70;99.90;;;;;;6212149;23;19923;-86
2022/07/11 07:08:59;;;;;;;2.75;1.35;;;15.70;99.90;;;;;;6186655;23;20012;-84
2022/07/11 07:11:28;;;;;;;1.17;1.08;;;15.70;99.90;;;;;;6190908;23;20032;-83
2022/07/11 07:13:56;;;;;;;1.73;1.40;;;15.70;99.90;;;;;;6224361;23;20017;-82
2022/07/11 07:16:25;;;;;;;4.47;2.13;;;15.70;99.90;;;;;;6225234;23;20031;-82
2022/07/11 07:18:56;;;;;;;1.35;1.25;;;15.70;99.90;;;;;;6186071;23;20021;-83
2022/07/11 07:21:25;;;;;;;1.90;1.33;;;15.70;99.90;;;;;;6225050;23;20009;-83
2022/07/11 07:23:53;;;;;;;3.70;2.13;;;15.70;99.90;;;;;;6189260;23;20028;-84
2022/07/11 07:26:21;;;;;;;4.15;1.98;;;15.80;99.90;;;;;;6219802;23;20509;-83
2022/07/11 07:28:50;;;;;;;1.88;1.23;;;15.80;99.90;;;;;;6197968;23;20336;-82
2022/07/11 07:31:18;;;;;;;3.63;1.25;;;15.90;99.90;;;;;;6191270;23;20044;-82
2022/07/11 07:33:46;;;;;;;1.30;1.20;;;15.90;99.90;;;;;;6224576;23;20012;-82
2022/07/11 07:36:14;;;;;;;2.38;1.38;;;15.90;99.90;;;;;;6187721;23;20021;-81
2022/07/11 07:38:46;;;;;;;1.42;1.30;;;16.00;99.90;;;;;;6193944;23;20039;-82
2022/07/11 07:41:17;;;;;;;3.47;1.05;;;16.10;99.90;;;;;;6223861;23;20009;-82
2022/07/11 07:43:49;;;;;;;1.48;1.17;;;16.10;99.90;;;;;;6162956;23;20020;-82
2022/07/11 07:46:17;;;;;;;1.00;0.98;;;16.10;99.90;;;;;;6221008;23;20036;-82
2022/07/11 07:48:46;;;;;;;1.50;1.40;;;16.00;99.90;;;;;;6187999;23;20439;-82
2022/07/11 07:51:14;;;;;;;1.42;1.33;;;16.10;99.90;;;;;;6187642;23;20591;-82
2022/07/11 07:53:42;;;;;;;2.58;1.98;;;16.20;99.90;;;;;;6158277;23;20025;-82
2022/07/11 07:56:10;;;;;;;1.58;1.35;;;16.10;99.90;;;;;;6182300;23;20021;-82
2022/07/11 07:58:38;;;;;;;1.20;1.10;;;16.20;99.90;;;;;;6190189;23;20036;-81
2022/07/11 08:01:42;;;;;;;2.60;1.10;;;16.20;99.90;;;;;;6194474;23;20024;-82
2022/07/11 08:04:05;;;;;;;1.38;0.80;;;16.20;99.90;;;;;;6183947;23;20017;-83
2022/07/11 08:06:36;;;;;;;7.28;1.30;;;16.30;99.90;;;;;;6157085;23;20013;-82
2022/07/11 08:09:05;;;;;;;1.27;1.20;;;16.30;99.90;;;;;;6157290;23;20013;-84
2022/07/11 08:11:34;;;;;;;4.75;1.52;;;16.30;99.90;;;;;;6132572;23;20348;-83
2022/07/11 08:14:15;;;;;;;5.28;1.20;;;16.40;99.90;;;;;;6165510;23;20059;-83
2022/07/11 08:16:44;;;;;;;1.52;1.23;;;16.60;99.90;;;;;;6133147;23;20017;-85
2022/07/11 08:19:12;;;;;;;2.70;1.30;;;16.70;99.90;;;;;;6157232;23;20051;-87
2022/07/11 08:21:40;;;;;;;2.38;1.45;;;16.70;99.90;;;;;;6109182;23;20052;-85
2022/07/11 08:24:08;;;;;;;1.17;1.10;;;16.60;99.90;;;;;;6157077;23;20021;-83
2022/07/11 08:26:40;;;;;;;5.13;0.90;;;16.60;99.90;;;;;;6189592;23;20025;-87
2022/07/11 08:29:19;;;;;;;3.70;0.93;;;16.60;99.90;;;;;;6167724;23;20325;-86
2022/07/11 08:31:47;;;;;;;1.25;0.77;;;16.80;99.90;;;;;;6157280;23;20053;-88
2022/07/11 08:34:16;;;;;;;8.63;1.33;;;16.70;99.90;;;;;;6189797;23;20032;-87
2022/07/11 08:36:44;;;;;;;4.40;1.15;;;16.60;99.90;;;;;;6191839;23;20583;-87
2022/07/11 08:39:12;;;;;;;4.45;1.77;;;16.80;99.90;;;;;;6187011;23;20029;-84
2022/07/11 08:41:44;;;;;;;2.33;1.05;;;16.80;99.90;;;;;;6193695;23;20013;-87
2022/07/11 08:44:12;;;;;;;2.92;1.75;;;16.90;99.90;;;;;;6183897;23;20021;-87
2022/07/11 08:46:41;;;;;;;2.60;1.90;;;16.80;99.90;;;;;;6190240;23;20450;-89
2022/07/11 08:49:11;;;;;;;0.75;0.75;;;16.90;99.90;;;;;;6194187;23;20032;-85
2022/07/11 08:51:41;;;;;;;1.00;1.00;;;16.90;99.90;;;;;;6185741;23;20029;-89
2022/07/11 08:54:12;;;;;;;2.97;1.08;;;17.10;99.90;;;;;;6133687;23;20024;-84
2022/07/11 08:56:43;;;;;;;3.60;1.30;;;17.10;99.90;;;;;;6169332;23;20024;-83
2022/07/11 08:59:17;;;;;;;0.82;0.82;;;17.20;99.90;;;;;;6189815;23;20025;-88
2022/07/11 09:01:49;;;;;;;9.20;2.33;;;17.20;99.90;;;;;;6145933;23;20020;-88
2022/07/11 09:04:19;;;;;;;1.40;1.00;;;17.20;99.90;;;;;;6134891;23;20029;-88
2022/07/11 09:06:47;;;;;;;3.47;1.20;;;17.00;99.90;;;;;;6190004;23;20036;-85
2022/07/11 09:09:16;;;;;;;1.50;1.40;;;16.90;99.90;;;;;;6194812;23;20009;-84
2022/07/11 09:11:56;;;;;;;1.45;1.20;;;16.90;99.90;;;;;;6135374;23;20072;-84
2022/07/11 09:14:29;;;;;;;2.35;1.33;;;17.10;99.90;;;;;;6192315;23;20036;-85
2022/07/11 09:17:02;;;;;;;0.90;0.90;;;17.10;99.90;;;;;;6188987;23;20032;-84
2022/07/11 09:19:32;;;;;;;0.80;0.80;;;17.20;99.90;;;;;;6161455;23;20021;-86
2022/07/11 09:25:25;;;;;;;3.33;1.58;;;17.40;99.90;;;;;;6158622;23;20025;-84
2022/07/11 09:27:56;;;;;;;2.60;1.38;;;17.60;99.90;;;;;;6158469;23;20029;-87
2022/07/11 09:30:30;;;;;;;2.83;1.33;;;17.60;99.90;;;;;;6192150;23;20329;-85
2022/07/11 09:33:06;;;;;;;3.00;1.20;;;17.30;99.90;;;;;;6193574;23;20013;-85
2022/07/11 09:35:36;;;;;;;4.97;1.90;;;17.20;99.90;;;;;;6157992;23;20028;-84
2022/07/11 09:38:51;;;;;;;2.75;1.40;;;17.10;99.90;;;;;;6153994;23;20033;-84
2022/07/11 09:42:30;;;;;;;5.75;1.55;;;17.00;99.90;;;;;;6090799;23;20015;31
2022/07/11 09:45:41;;;;;;;1.40;0.90;;;17.10;99.90;;;;;;6105837;23;20435;-87
2022/07/11 09:48:49;;;;;;;3.20;0.98;;;17.30;99.90;;;;;;6070637;23;20023;-87
2022/07/11 09:52:15;;;;;;;1.23;1.00;;;17.50;99.90;;;;;;6055829;23;20026;-86
2022/07/11 09:55:04;;;;;;;1.40;0.65;;;17.60;99.90;;;;;;6080587;23;20018;-88
2022/07/11 09:57:49;;;;;;;0.70;0.70;;;17.40;99.90;;;;;;6101677;23;20358;-82
2022/07/11 10:00:17;;;;;;;0.82;0.65;;;17.30;99.90;;;;;;6093387;23;20018;-85
2022/07/11 10:02:46;;;;;;;1.88;0.82;;;17.10;99.90;;;;;;6076351;23;20027;-83
2022/07/11 10:05:15;;;;;;;0.57;0.57;;;17.10;99.90;;;;;;6046918;23;20641;-87
2022/07/11 10:07:43;;;;;;;3.42;0.80;;;17.20;99.90;;;;;;6046728;23;20339;-84
2022/07/11 10:10:11;;;;;;;6.22;0.60;;;17.30;99.90;;;;;;6069286;23;20022;-85
2022/07/11 10:12:40;;;;;;;2.47;0.80;;;17.60;99.90;;;;;;6106059;23;20014;-82
2022/07/11 10:15:16;;;;;;;1.38;0.50;;;17.80;99.90;;;;;;6074920;23;20027;-86
2022/07/11 10:18:06;;;;;;;0.47;0.47;;;17.90;99.90;;;;;;6103812;23;20018;-84
2022/07/11 10:20:53;;;;;;;0.65;0.40;;;17.90;99.90;;;;;;6056531;23;20022;-82
2022/07/11 10:23:30;;;;;;;2.30;0.50;;;17.80;99.90;;;;;;6046296;23;20031;-83
2022/07/11 10:26:20;;;;;;;0.60;0.60;;;17.70;99.90;;;;;;6104314;23;20025;-84
2022/07/11 10:29:02;;;;;;;0.70;0.60;;;17.70;99.90;;;;;;6070396;23;20034;-81
2022/07/11 10:31:33;;;;;;;0.52;0.52;;;17.70;99.90;;;;;;6093256;23;20026;-84
2022/07/11 10:34:27;;;;;;;1.30;0.70;;;17.80;99.90;;;;;;6101424;23;20026;-80
2022/07/11 10:37:01;;;;;;;0.40;0.40;;;17.80;99.90;;;;;;6092763;23;20045;-85
2022/07/11 10:39:29;;;;;;;0.57;0.57;;;17.70;99.90;;;;;;6096629;23;20745;-82
2022/07/11 10:41:59;;;;;;;0.98;0.82;;;17.50;99.90;;;;;;6076144;23;20615;-80
2022/07/11 10:44:57;;;;;;;0.43;0.43;;;17.40;99.90;;;;;;6093828;23;20064;-81
2022/07/11 10:48:09;;;;;;;0.82;0.60;;;17.30;99.90;;;;;;6067379;23;20365;-82
2022/07/11 10:50:40;;;;;;;0.73;0.73;;;17.10;99.90;;;;;;6090480;23;20026;-80
2022/07/11 10:53:10;;;;;;;0.50;0.50;;;17.00;99.90;;;;;;6104386;23;20334;-81
2022/07/11 10:56:04;;;;;;;0.50;0.50;;;17.00;99.90;;;;;;6095344;23;20049;-81
2022/07/11 10:58:32;;;;;;;0.40;0.40;;;16.90;99.90;;;;;;6098706;23;20027;-81
2022/07/11 11:01:13;;;;;;;0.40;0.40;;;17.00;99.90;;;;;;6067166;23;20018;-83
2022/07/11 11:03:43;;;;;;;0.77;0.77;;;17.10;99.90;;;;;;6069592;23;20030;-82
2022/07/11 11:06:13;;;;;;;1.75;0.50;;;17.20;99.90;;;;;;6093393;23;20037;-82
2022/07/11 11:08:43;;;;;;;0.60;0.60;;;17.30;99.90;;;;;;6104879;23;20018;-80
2022/07/11 11:11:26;;;;;;;0.50;0.50;;;17.40;99.90;;;;;;6098823;23;20035;-81
2022/07/11 11:14:26;;;;;;;0.30;0.30;;;17.50;99.90;;;;;;6068778;23;20018;-81
2022/07/11 11:16:54;;;;;;;0.50;0.50;;;17.60;99.90;;;;;;6105033;23;20010;-82
2022/07/11 11:19:44;;;;;;;0.40;0.40;;;17.70;99.90;;;;;;6098539;23;20026;-81
2022/07/11 11:22:18;;;;;;;0.60;0.52;;;17.70;99.90;;;;;;6100373;23;20025;-83
2022/07/11 11:24:50;;;;;;;5.20;0.63;;;17.60;99.90;;;;;;6045548;23;20023;-82
2022/07/11 11:27:38;;;;;;;0.40;0.40;;;17.70;99.90;;;;;;6095204;23;20214;-83
2022/07/11 11:30:07;;;;;;;0.30;0.30;;;17.90;99.90;;;;;;6100349;23;20018;-85
2022/07/11 11:32:35;;;;;;;0.95;0.70;;;17.90;99.90;;;;;;6101584;23;20025;-84
2022/07/11 11:35:10;;;;;;;0.65;0.55;;;17.90;99.90;;;;;;6096017;23;20034;-85
2022/07/11 11:37:38;;;;;;;1.00;0.43;;;17.90;99.90;;;;;;6101685;23;20019;-82
2022/07/11 11:40:07;;;;;;;0.30;0.30;;;17.90;99.90;;;;;;6091527;23;20030;-84
2022/07/11 11:42:34;;;;;;;1.55;1.27;;;17.90;99.90;;;;;;6098832;23;20045;-83
2022/07/11 11:45:15;;;;;;;1.10;0.40;;;17.80;99.90;;;;;;6092809;23;20015;-81
2022/07/11 11:47:54;;;;;;;0.40;0.40;;;17.70;99.90;;;;;;6072637;23;20030;-83
2022/07/11 11:50:22;;;;;;;0.50;0.50;;;17.80;99.90;;;;;;6101317;23;20034;-83
2022/07/11 11:52:50;;;;;;;0.40;0.40;;;17.80;99.90;;;;;;6102587;23;20625;-84
2022/07/11 11:55:19;;;;;;;1.95;0.82;;;17.90;99.90;;;;;;6091601;23;20034;-84
2022/07/11 11:57:47;;;;;;;3.08;1.23;;;18.00;99.90;;;;;;6103955;23;20022;-80
2022/07/11 12:00:30;;;;;;;0.60;0.60;;;18.10;99.90;;;;;;6093408;23;20030;-83
2022/07/11 12:03:18;;;;;;;0.40;0.40;;;18.20;99.90;;;;;;6067885;23;20751;-84
2022/07/11 12:05:56;;;;;;;1.02;0.93;;;18.10;99.90;;;;;;6104197;23;20029;-82
2022/07/11 12:08:28;;;;;;;1.35;0.40;;;18.10;99.90;;;;;;6076183;23;20022;-83
2022/07/11 12:10:56;;;;;;;0.82;0.60;;;18.10;99.90;;;;;;6098924;23;20739;-85
2022/07/11 12:13:24;;;;;;;1.05;0.93;;;18.10;99.90;;;;;;6103711;23;20335;-81
2022/07/11 12:18:39;;;;;;;0.68;0.50;;;18.10;99.90;;;;;;6099326;23;20034;-82
2022/07/11 12:21:12;;;;;;;2.65;0.95;;;18.20;99.90;;;;;;6102504;23;20014;-85
2022/07/11 12:23:40;;;;;;;1.10;1.00;;;18.20;99.90;;;;;;6096442;23;20030;-82
2022/07/11 12:26:08;;;;;;;0.50;0.47;;;18.20;99.90;;;;;;6101556;23;20027;-83
2022/07/11 12:29:01;;;;;;;1.52;1.20;;;18.30;99.90;;;;;;6103190;23;20018;-84
2022/07/11 12:31:40;;;;;;;0.68;0.60;;;18.40;99.90;;;;;;6096646;23;20038;-84
2022/07/11 12:34:08;;;;;;;0.65;0.65;;;18.40;99.90;;;;;;6102501;23;20015;-84
2022/07/11 12:36:36;;;;;;;0.70;0.70;;;18.30;99.90;;;;;;6103769;23;20015;-82
2022/07/11 12:39:29;;;;;;;3.83;1.83;;;18.30;99.90;;;;;;6097853;23;20026;-84
2022/07/11 12:42:19;;;;;;;1.65;0.77;;;18.50;99.90;;;;;;6094270;23;20018;-85
2022/07/11 12:44:58;;;;;;;0.75;0.40;;;18.60;99.90;;;;;;6068753;23;20019;-83
2022/07/11 12:47:27;;;;;;;1.02;0.95;;;18.50;99.90;;;;;;6095792;23;20037;-83
2022/07/11 12:49:56;;;;;;;0.68;0.68;;;18.40;99.90;;;;;;6043787;23;20346;-82
2022/07/11 12:52:41;;;;;;;0.57;0.52;;;18.50;99.90;;;;;;6045338;23;20018;-82
2022/07/11 12:55:11;;;;;;;0.60;0.60;;;18.70;99.90;;;;;;6095029;23;20042;-82
2022/07/11 12:57:39;;;;;;;0.95;0.85;;;18.70;99.90;;;;;;6103688;23;20551;-80
2022/07/11 13:00:19;;;;;;;0.70;0.70;;;18.80;99.90;;;;;;6094388;23;20030;-82
2022/07/11 13:02:50;;;;;;;3.30;1.02;;;18.80;99.90;;;;;;6099204;23;20034;-82
2022/07/11 13:05:21;;;;;;;0.82;0.68;;;18.80;99.90;;;;;;6068907;23;20022;-83
2022/07/11 13:11:00;;;;;;;2.83;1.27;;;19.10;99.90;;;;;;6066564;23;20543;-84
2022/07/11 13:19:25;;;;;;;0.77;0.70;;;19.10;99.90;;;;;;6070935;23;20457;-82
2022/07/11 13:28:16;;;;;;;0.70;0.70;;;19.60;99.90;;;;;;6061245;23;20038;-82
2022/07/11 13:31:08;;;;;;;0.68;0.65;;;19.90;99.90;;;;;;6089104;23;20034;-84
2022/07/11 13:34:17;;;;;;;1.27;0.90;;;19.90;99.90;;;;;;6064395;23;20022;-83
2022/07/11 13:37:40;;;;;;;0.40;0.40;;;19.90;99.90;;;;;;6056189;23;20469;-81
2022/07/11 13:40:10;;;;;;;3.03;0.95;;;19.60;99.90;;;;;;6090817;23;20030;-76
2022/07/11 13:42:40;;;;;;;1.20;1.10;;;19.40;99.90;;;;;;6045633;23;20439;-85
2022/07/11 13:45:10;;;;;;;0.70;0.70;;;19.50;99.90;;;;;;6069968;23;20026;-84
2022/07/11 13:48:00;;;;;;;0.82;0.82;;;19.70;99.90;;;;;;6066210;23;20026;-83
2022/07/11 13:51:00;;;;;;;0.70;0.70;;;19.90;99.90;;;;;;6050402;23;20450;-85
2022/07/11 13:53:34;;;;;;;1.13;0.82;;;19.90;99.90;;;;;;6070971;23;20041;-84
2022/07/11 13:56:40;;;;;;;0.50;0.50;;;19.90;99.90;;;;;;6069746;23;20022;-83
2022/07/11 14:00:21;;;;;;;1.75;1.10;;;19.90;99.90;;;;;;5920296;23;20044;-82
2022/07/11 14:02:49;;;;;;;0.68;0.68;;;20.00;99.90;;;;;;5960924;23;20118;-85
2022/07/11 14:05:19;;;;;;;1.65;0.77;;;20.10;99.90;;;;;;5984089;23;20027;-87
2022/07/11 14:07:48;;;;;;;0.50;0.50;;;20.00;99.90;;;;;;5982705;23;20032;-83
2022/07/11 14:10:16;;;;;;;0.40;0.40;;;19.80;99.90;;;;;;5982603;23;20032;-83
2022/07/11 14:12:56;;;;;;;1.63;1.15;;;19.50;99.90;;;;;;6017210;23;20039;-81
2022/07/11 14:15:28;;;;;;;1.67;1.30;;;19.40;99.90;;;;;;5957477;23;20025;-82
2022/07/11 14:18:22;;;;;;;0.43;0.43;;;19.20;99.90;;;;;;5964836;23;20016;-82
2022/07/11 14:21:17;;;;;;;0.65;0.65;;;19.10;99.90;;;;;;5924220;24;20028;-81
2022/07/11 14:23:47;;;;;;;0.70;0.70;;;19.00;99.90;;;;;;5927913;24;20048;-80
2022/07/11 14:26:15;;;;;;;0.50;0.50;;;19.00;99.90;;;;;;5927894;24;20440;-83
2022/07/11 14:28:43;;;;;;;0.90;0.90;;;19.20;99.90;;;;;;5938099;24;20016;-83
2022/07/11 14:31:24;;;;;;;0.70;0.70;;;19.50;99.90;;;;;;5919949;23;20355;-83
2022/07/11 14:33:55;;;;;;;0.50;0.50;;;19.90;99.90;;;;;;6006878;23;20019;-84
2022/07/11 14:36:24;;;;;;;2.17;0.50;;;19.80;99.90;;;;;;6007033;23;20022;-84
2022/07/11 14:38:54;;;;;;;1.08;0.80;;;19.60;99.90;;;;;;6012221;23;20050;-86
2022/07/11 14:41:29;;;;;;;2.30;0.75;;;19.40;99.90;;;;;;5983183;23;20692;-83
2022/07/11 14:44:05;;;;;;;3.00;0.82;;;19.30;99.90;;;;;;6005852;23;20031;-83
2022/07/11 14:46:33;;;;;;;0.70;0.70;;;19.40;99.90;;;;;;5982993;23;20444;-83
2022/07/11 14:49:01;;;;;;;1.65;0.82;;;19.40;99.90;;;;;;5984462;23;20916;-84
2022/07/11 14:51:29;;;;;;;0.73;0.63;;;19.40;99.90;;;;;;6023763;23;20029;-84
2022/07/11 14:54:23;;;;;;;2.35;1.13;;;19.30;99.90;;;;;;6069521;23;20022;-83
2022/07/11 14:56:51;;;;;;;0.52;0.52;;;19.30;99.90;;;;;;6069637;23;20025;-83
2022/07/11 14:59:19;;;;;;;0.95;0.95;;;19.40;99.90;;;;;;6045351;23;20718;-83
2022/07/11 15:01:47;;;;;;;1.58;0.60;;;19.50;99.90;;;;;;6070485;23;20019;-84
2022/07/11 15:04:17;;;;;;;0.63;0.63;;;19.50;99.90;;;;;;6093984;23;20029;-84
2022/07/11 15:12:25;;;;;;;0.57;0.57;;;19.50;99.90;;;;;;6095024;23;20022;-84
2022/07/11 15:14:53;;;;;;;0.70;0.70;;;19.50;99.90;;;;;;6070190;23;20029;-83
2022/07/11 15:17:22;;;;;;;1.63;0.75;;;19.50;99.90;;;;;;6071113;23;20018;-84
2022/07/11 15:19:50;;;;;;;0.50;0.50;;;19.70;99.90;;;;;;6069740;23;20651;-84
2022/07/11 15:22:22;;;;;;;1.92;0.65;;;20.00;99.90;;;;;;6102416;23;20446;-86
2022/07/11 15:25:22;;;;;;;0.50;0.50;;;20.20;99.90;;;;;;6104493;23;20014;-84
2022/07/11 15:27:50;;;;;;;0.73;0.70;;;20.50;99.90;;;;;;6097842;23;20030;-84
2022/07/11 15:30:20;;;;;;;0.70;0.70;;;20.60;99.90;;;;;;6102332;23;20030;-83
2022/07/11 15:32:48;;;;;;;3.20;0.63;;;20.50;99.90;;;;;;6106087;23;20014;-85
2022/07/11 15:35:16;;;;;;;0.40;0.40;;;20.40;99.90;;;;;;6069817;23;20037;-84
2022/07/11 15:37:44;;;;;;;0.50;0.50;;;20.30;99.90;;;;;;6047133;23;20019;-84
2022/07/11 15:40:12;;;;;;;0.77;0.77;;;19.90;99.90;;;;;;6045272;23;20022;-83
2022/07/11 15:42:40;;;;;;;0.40;0.40;;;19.70;99.90;;;;;;6069098;23;20367;-84
2022/07/11 15:45:14;;;;;;;2.05;0.82;;;19.60;99.90;;;;;;6070086;23;20022;-85
2022/07/11 15:47:46;;;;;;;0.50;0.50;;;19.60;99.90;;;;;;6080836;23;20037;-85
2022/07/11 15:50:45;;;;;;;0.50;0.50;;;19.40;99.90;;;;;;6119099;23;20025;-86
2022/07/11 15:53:18;;;;;;;0.73;0.73;;;19.30;99.90;;;;;;6097392;23;20021;-85
2022/07/11 15:56:18;;;;;;;0.40;0.40;;;19.30;99.90;;;;;;6100970;23;20030;-85
2022/07/11 15:59:24;;;;;;;;;;;;;;;;;;;;;
2022/07/11 16:02:20;;;;;;;0.50;0.50;;;19.20;99.90;;;;;;6132988;23;20010;-84
2022/07/11 16:05:00;;;;;;;1.00;0.90;;;19.20;99.90;;;;;;6078675;23;20018;-83
2022/07/11 16:07:28;;;;;;;0.43;0.43;;;19.30;99.90;;;;;;6121445;23;20022;-84
2022/07/11 16:09:56;;;;;;;0.70;0.63;;;19.20;99.90;;;;;;6130681;23;20020;-87
2022/07/11 16:12:24;;;;;;;1.25;1.00;;;19.30;99.90;;;;;;6098222;23;20014;-84
2022/07/11 16:16:04;;;;;;;0.80;0.80;;;19.30;99.90;;;;;;6060547;23;20466;-85
2022/07/11 16:18:33;;;;;;;0.73;0.73;;;19.30;99.90;;;;;;6033825;23;20067;-84
2022/07/11 16:21:13;;;;;;;2.40;0.50;;;19.20;99.90;;;;;;6016088;23;20019;-84
2022/07/11 16:23:56;;;;;;;0.52;0.52;;;19.30;99.90;;;;;;6062724;23;20033;-86
2022/07/11 16:26:34;;;;;;;0.52;0.52;;;19.30;99.90;;;;;;6068639;23;20022;-86
2022/07/11 16:29:38;;;;;;;4.05;0.73;;;19.20;99.90;;;;;;6063194;23;20023;-83
2022/07/11 16:32:45;;;;;;;0.50;0.50;;;19.10;99.90;;;;;;6037355;23;20034;-86
2022/07/11 16:36:00;;;;;;;0.50;0.50;;;19.10;99.90;;;;;;6065514;23;20038;-84
2022/07/11 16:38:28;;;;;;;0.93;0.93;;;19.20;99.90;;;;;;6088436;23;20023;-84
2022/07/11 16:44:19;;;;;;;7.05;1.30;;;19.60;99.90;;;;;;6086902;23;20038;-83
2022/07/11 16:46:55;;;;;;;1.95;0.95;;;20.10;99.90;;;;;;6066572;23;20123;-85
2022/07/11 16:49:25;;;;;;;0.70;0.70;;;20.00;99.90;;;;;;6038010;23;20023;-85
2022/07/11 16:51:54;;;;;;;0.50;0.50;;;19.80;99.90;;;;;;6038447;23;20023;-83
2022/07/11 16:54:22;;;;;;;0.85;0.85;;;19.70;99.90;;;;;;6062181;23;20022;-84
2022/07/11 16:56:53;;;;;;;0.70;0.70;;;19.60;99.90;;;;;;6062910;23;20015;-84
2022/07/11 16:59:26;;;;;;;0.52;0.52;;;19.40;99.90;;;;;;6065113;23;20027;-84
2022/07/11 17:01:54;;;;;;;0.70;0.70;;;19.30;99.90;;;;;;6131799;23;20010;-84
2022/07/11 17:04:22;;;;;;;6.05;1.55;;;19.20;99.90;;;;;;6098882;23;20014;-84
2022/07/11 17:06:50;;;;;;;0.60;0.60;;;19.20;99.90;;;;;;6114147;23;20030;-83
2022/07/11 17:09:19;;;;;;;0.60;0.60;;;19.10;99.90;;;;;;6098302;23;20029;-84
2022/07/11 17:11:47;;;;;;;3.50;0.82;;;19.00;99.90;;;;;;6123879;23;20045;-85
2022/07/11 17:14:47;;;;;;;0.93;0.93;;;19.10;99.90;;;;;;6097413;23;20018;-84
2022/07/11 17:17:15;;;;;;;7.05;1.92;;;19.00;99.90;;;;;;6098920;23;20022;-85
2022/07/11 17:19:43;;;;;;;0.60;0.60;;;18.90;99.90;;;;;;6074607;23;20042;-82
2022/07/11 17:22:11;;;;;;;0.50;0.50;;;18.90;99.90;;;;;;6133761;23;20426;-82
2022/07/11 17:24:39;;;;;;;1.08;0.95;;;18.90;99.90;;;;;;6134057;23;20020;-81
2022/07/11 17:27:07;;;;;;;0.93;0.80;;;18.90;99.90;;;;;;6129939;23;20025;-84
2022/07/11 17:29:49;;;;;;;0.60;0.60;;;18.80;99.90;;;;;;6099851;23;20350;-83
2022/07/11 17:32:28;;;;;;;0.93;0.93;;;18.80;99.90;;;;;;5954933;23;20475;-83
2022/07/11 17:35:15;;;;;;;0.57;0.57;;;18.80;99.90;;;;;;6036165;23;20020;-84
2022/07/11 17:37:44;;;;;;;3.60;0.80;;;18.70;99.90;;;;;;6013997;23;20019;-84
2022/07/11 17:40:27;;;;;;;0.57;0.57;;;18.70;99.90;;;;;;5990443;23;20043;-83
2022/07/11 17:43:05;;;;;;;1.48;1.38;;;18.60;99.90;;;;;;6013007;23;20857;-84
2022/07/11 17:45:39;;;;;;;0.65;0.60;;;18.70;99.90;;;;;;6013295;23;20015;-83
2022/07/11 17:48:09;;;;;;;2.75;1.50;;;18.60;99.90;;;;;;6034966;23;20031;-83
2022/07/11 17:50:42;;;;;;;1.00;0.73;;;18.60;99.90;;;;;;6011476;23;20031;-83
2022/07/11 17:53:30;;;;;;;1.88;0.70;;;18.60;99.90;;;;;;6017027;23;20027;-84
2022/07/11 17:55:58;;;;;;;0.73;0.73;;;18.50;99.90;;;;;;6011664;23;20039;-83
2022/07/11 17:58:29;;;;;;;0.70;0.70;;;18.50;99.90;;;;;;6010368;23;20026;-83
2022/07/11 18:01:42;;;;;;;1.15;0.70;;;18.40;99.90;;;;;;6022604;23;20031;-83
2022/07/11 18:04:23;;;;;;;1.25;1.15;;;18.30;99.90;;;;;;6078700;23;20081;-83
2022/07/11 18:07:51;;;;;;;0.52;0.52;;;18.30;99.90;;;;;;6108603;23;20029;-83
2022/07/11 18:10:19;;;;;;;;;;;18.20;99.90;;;;;;6075138;23;20029;-83
2022/07/11 18:12:47;;;;;;;1.00;1.00;;;18.20;99.90;;;;;;6134570;23;19924;-84
2022/07/11 18:15:33;;;;;;;0.90;0.90;;;18.20;99.90;;;;;;6128300;23;20354;-83
2022/07/11 18:18:10;;;;;;;1.88;0.88;;;18.10;99.90;;;;;;6132157;23;20017;-84
2022/07/11 18:20:40;;;;;;;1.45;1.15;;;18.10;99.90;;;;;;6099903;23;20018;-84
2022/07/11 18:23:16;;;;;;;1.27;1.23;;;18.10;99.90;;;;;;6075339;23;20025;-83
2022/07/11 18:25:45;;;;;;;1.23;0.77;;;18.10;99.90;;;;;;6099530;23;20037;-83
2022/07/11 18:28:15;;;;;;;1.35;0.90;;;18.00;99.90;;;;;;6097270;23;20026;-83
2022/07/11 18:30:43;;;;;;;0.50;0.50;;;18.00;99.90;;;;;;6067428;23;20033;-83
2022/07/11 18:33:11;;;;;;;0.60;0.60;;;18.00;99.90;;;;;;6099950;23;20342;-83
2022/07/11 18:41:36;;;;;;;0.85;0.77;;;18.00;99.90;;;;;;6109322;23;20013;-84
2022/07/11 18:44:06;;;;;;;0.95;0.65;;;17.90;99.90;;;;;;6098780;23;20033;-84
2022/07/11 18:46:45;;;;;;;1.27;0.80;;;17.90;99.90;;;;;;6078007;23;20048;-83
2022/07/11 18:49:13;;;;;;;2.17;0.80;;;17.90;99.90;;;;;;6099288;23;20018;-84
2022/07/11 18:51:43;;;;;;;0.70;0.70;;;17.80;99.90;;;;;;6125593;23;20374;-84
2022/07/11 18:54:13;;;;;;;1.23;1.05;;;17.70;99.90;;;;;;6076380;23;20026;-84
2022/07/11 18:56:41;;;;;;;0.70;0.70;;;17.70;99.90;;;;;;6135162;23;20014;-84
2022/07/11 18:59:09;;;;;;;0.70;0.70;;;17.60;99.90;;;;;;6074916;23;20022;-84
2022/07/11 19:01:38;;;;;;;0.57;0.57;;;17.60;99.90;;;;;;6110317;23;20014;-84
2022/07/11 19:04:07;;;;;;;0.57;0.57;;;17.60;99.90;;;;;;6099223;23;20026;-84
2022/07/11 19:06:36;;;;;;;1.30;0.73;;;17.60;99.90;;;;;;6105879;23;20014;-84
2022/07/11 19:09:07;;;;;;;0.82;0.80;;;17.60;99.90;;;;;;6074837;23;20021;-84
2022/07/11 19:11:36;;;;;;;1.52;1.42;;;17.50;99.90;;;;;;6098602;23;20022;-84
2022/07/11 19:14:12;;;;;;;0.98;0.80;;;17.40;99.90;;;;;;6052177;23;20029;-84
2022/07/11 19:16:42;;;;;;;1.35;1.20;;;17.30;99.90;;;;;;6109669;23;20017;-84
2022/07/11 19:19:12;;;;;;;1.05;0.93;;;17.20;99.90;;;;;;6098545;23;20350;-84
2022/07/11 19:21:41;;;;;;;0.80;0.80;;;17.10;99.90;;;;;;6098474;23;20029;-84
2022/07/11 19:24:09;;;;;;;0.98;0.93;;;17.10;99.90;;;;;;6098790;23;20676;-84
2022/07/11 19:26:37;;;;;;;2.30;1.00;;;17.10;99.90;;;;;;6098314;23;20026;-84
2022/07/11 19:29:05;;;;;;;0.70;0.65;;;17.10;99.90;;;;;;6099161;23;20014;-84
2022/07/11 19:31:39;;;;;;;1.05;0.95;;;17.00;99.90;;;;;;6127722;23;20041;-86